createdAt,value
2023-05-09T00:02:26.029Z,52.23
2023-05-09T00:04:53.789Z,52.28
2023-05-09T00:07:25.024Z,52.19
2023-05-09T00:09:57.163Z,51.96
2023-05-09T00:12:25.315Z,52.27
2023-05-09T00:14:52.009Z,52.15
2023-05-09T00:17:22.929Z,52.20
2023-05-09T00:19:52.733Z,52.09
2023-05-09T00:22:24.307Z,52.38
2023-05-09T00:24:51.233Z,52.29
2023-05-09T00:27:18.239Z,52.07
2023-05-09T00:29:50.171Z,52.15
2023-05-09T00:32:20.672Z,52.22
2023-05-09T00:34:49.825Z,51.99
2023-05-09T00:37:21.336Z,52.05
2023-05-09T00:39:53.215Z,52.45
2023-05-09T00:42:25.848Z,52.21
2023-05-09T00:44:52.545Z,52.21
2023-05-09T00:47:29.533Z,52.20
2023-05-09T00:50:06.007Z,52.20
2023-05-09T00:52:37.969Z,51.94
2023-05-09T00:55:08.310Z,51.91
2023-05-09T00:57:35.433Z,52.18
2023-05-09T01:00:15.324Z,52.38
2023-05-09T01:03:19.095Z,52.32
2023-05-09T01:05:56.611Z,52.06
2023-05-09T01:09:11.285Z,52.15
2023-05-09T01:11:55.247Z,52.37
2023-05-09T01:14:54.870Z,52.12
2023-05-09T01:17:41.046Z,52.37
2023-05-09T01:20:23.986Z,52.08
2023-05-09T01:23:12.575Z,52.25
2023-05-09T01:26:42.476Z,52.45
2023-05-09T01:29:54.946Z,52.23
2023-05-09T01:32:43.271Z,52.12
2023-05-09T01:35:14.679Z,52.26
2023-05-09T01:37:44.676Z,52.06
2023-05-09T01:40:15.007Z,52.12
2023-05-09T01:42:45.497Z,52.08
2023-05-09T01:45:14.490Z,52.14
2023-05-09T01:47:42.017Z,52.22
2023-05-09T01:50:12.054Z,52.34
2023-05-09T01:52:41.555Z,52.12
2023-05-09T01:55:09.880Z,52.41
2023-05-09T01:57:37.460Z,52.09
2023-05-09T02:00:07.968Z,52.17
2023-05-09T02:02:35.348Z,52.03
2023-05-09T02:05:02.664Z,52.22
2023-05-09T02:07:30.177Z,51.93
2023-05-09T02:09:58.361Z,51.87
2023-05-09T02:12:25.154Z,52.19
2023-05-09T02:14:51.875Z,52.13
2023-05-09T02:17:19.311Z,51.96
2023-05-09T02:19:46.030Z,52.02
2023-05-09T02:22:13.545Z,51.95
2023-05-09T02:24:41.352Z,52.03
2023-05-09T02:27:10.534Z,52.25
2023-05-09T02:29:50.608Z,52.12
2023-05-09T02:32:23.498Z,52.09
2023-05-09T02:34:53.071Z,51.99
2023-05-09T02:37:20.698Z,52.34
2023-05-09T02:39:47.888Z,52.03
2023-05-09T02:42:25.227Z,51.94
2023-05-09T02:44:52.913Z,52.16
2023-05-09T02:47:19.965Z,52.14
2023-05-09T02:49:46.551Z,52.04
2023-05-09T02:52:13.125Z,52.28
2023-05-09T02:54:39.947Z,52.10
2023-05-09T02:57:06.875Z,51.97
2023-05-09T02:59:33.773Z,52.16
2023-05-09T03:02:00.381Z,51.92
2023-05-09T03:04:27.309Z,51.83
2023-05-09T03:06:54.003Z,51.96
2023-05-09T03:09:20.576Z,51.80
2023-05-09T03:11:47.166Z,52.21
2023-05-09T03:14:14.958Z,51.75
2023-05-09T03:16:41.875Z,52.02
2023-05-09T03:19:08.629Z,52.03
2023-05-09T03:21:35.170Z,52.10
2023-05-09T03:24:01.956Z,52.14
2023-05-09T03:26:28.490Z,51.77
2023-05-09T03:28:55.012Z,52.07
2023-05-09T03:31:21.650Z,51.71
2023-05-09T03:33:48.330Z,51.90
2023-05-09T03:36:14.902Z,51.85
2023-05-09T03:38:41.561Z,52.08
2023-05-09T03:41:08.113Z,51.82
2023-05-09T03:43:34.716Z,51.84
2023-05-09T03:46:01.323Z,52.12
2023-05-09T03:48:27.831Z,52.15
2023-05-09T03:50:54.492Z,52.11
2023-05-09T03:53:21.065Z,52.00
2023-05-09T03:55:47.824Z,51.90
2023-05-09T03:58:14.932Z,51.84
2023-05-09T04:00:41.969Z,51.99
2023-05-09T04:03:08.703Z,51.98
2023-05-09T04:05:35.495Z,51.83
2023-05-09T04:08:02.977Z,52.04
2023-05-09T04:10:30.768Z,52.08
2023-05-09T04:12:57.508Z,52.07
2023-05-09T04:15:24.160Z,51.89
2023-05-09T04:17:50.863Z,52.03
2023-05-09T04:20:17.568Z,52.25
2023-05-09T04:22:46.090Z,52.06
2023-05-09T04:25:14.966Z,51.93
2023-05-09T04:27:41.653Z,51.87
2023-05-09T04:30:09.421Z,51.89
2023-05-09T04:32:36.853Z,52.00
2023-05-09T04:35:04.201Z,51.88
2023-05-09T04:37:31.608Z,51.86
2023-05-09T04:39:58.614Z,51.66
2023-05-09T04:42:25.196Z,51.89
2023-05-09T04:44:51.802Z,51.89
2023-05-09T04:47:18.388Z,51.78
2023-05-09T04:49:44.936Z,51.62
2023-05-09T04:52:11.506Z,51.63
2023-05-09T04:54:38.049Z,51.79
2023-05-09T04:57:17.146Z,51.58
2023-05-09T04:59:45.367Z,51.76
2023-05-09T05:02:13.049Z,51.89
2023-05-09T05:04:39.805Z,51.84
2023-05-09T05:07:06.497Z,51.66
2023-05-09T05:09:33.097Z,51.50
2023-05-09T05:12:02.295Z,51.69
2023-05-09T05:14:29.167Z,51.30
2023-05-09T05:16:55.782Z,51.51
2023-05-09T05:19:22.296Z,51.81
2023-05-09T05:21:48.883Z,51.31
2023-05-09T05:24:15.458Z,51.55
2023-05-09T05:26:42.060Z,51.68
2023-05-09T05:29:08.842Z,51.71
2023-05-09T05:31:36.354Z,51.48
2023-05-09T05:34:03.135Z,51.75
2023-05-09T05:36:29.729Z,51.57
2023-05-09T05:38:56.282Z,51.62
2023-05-09T05:41:23.500Z,51.67
2023-05-09T05:43:51.120Z,51.52
2023-05-09T05:46:19.524Z,51.35
2023-05-09T05:48:46.169Z,51.80
2023-05-09T05:51:12.709Z,51.79
2023-05-09T05:53:39.260Z,51.72
2023-05-09T05:56:06.108Z,51.52
2023-05-09T05:58:32.712Z,51.78
2023-05-09T06:00:59.244Z,51.71
2023-05-09T06:03:26.090Z,51.55
2023-05-09T06:05:52.972Z,51.69
2023-05-09T06:08:19.528Z,51.56
2023-05-09T06:10:46.113Z,51.83
2023-05-09T06:13:12.758Z,51.69
2023-05-09T06:15:39.411Z,51.60
2023-05-09T06:18:06.032Z,51.59
2023-05-09T06:20:32.860Z,51.98
2023-05-09T06:22:59.481Z,52.08
2023-05-09T06:25:26.013Z,52.03
2023-05-09T06:27:52.581Z,52.10
2023-05-09T06:30:26.477Z,51.66
2023-05-09T06:32:54.803Z,51.85
2023-05-09T06:35:21.847Z,51.92
2023-05-09T06:37:49.173Z,52.66
2023-05-09T06:40:16.938Z,52.30
2023-05-09T06:42:43.726Z,52.57
2023-05-09T06:45:10.884Z,52.60
2023-05-09T06:47:37.511Z,52.67
2023-05-09T06:50:04.504Z,52.83
2023-05-09T06:52:31.256Z,52.70
2023-05-09T06:54:57.807Z,52.88
2023-05-09T06:57:24.426Z,52.70
2023-05-09T06:59:51.093Z,52.78
2023-05-09T07:02:17.715Z,52.58
2023-05-09T07:04:44.345Z,53.17
2023-05-09T07:07:10.894Z,52.47
2023-05-09T07:09:37.654Z,52.76
2023-05-09T07:12:04.604Z,52.76
2023-05-09T07:14:31.160Z,52.32
2023-05-09T07:17:09.856Z,52.51
2023-05-09T07:19:44.262Z,52.51
2023-05-09T07:22:10.944Z,52.36
2023-05-09T07:24:37.544Z,52.39
2023-05-09T07:27:04.213Z,52.49
2023-05-09T07:29:30.800Z,52.27
2023-05-09T07:31:57.487Z,52.66
2023-05-09T07:34:25.487Z,52.45
2023-05-09T07:36:52.222Z,52.16
2023-05-09T07:39:18.904Z,52.23
2023-05-09T07:41:46.425Z,52.35
2023-05-09T07:44:15.036Z,52.42
2023-05-09T07:46:42.211Z,52.23
2023-05-09T07:49:09.206Z,52.51
2023-05-09T07:51:35.968Z,52.49
2023-05-09T07:54:02.616Z,52.39
2023-05-09T07:56:29.220Z,52.42
2023-05-09T07:58:56.014Z,52.47
2023-05-09T08:01:22.581Z,52.36
2023-05-09T08:03:49.290Z,52.25
2023-05-09T08:06:15.994Z,52.37
2023-05-09T08:08:42.567Z,52.18
2023-05-09T08:11:09.089Z,52.42
2023-05-09T08:13:35.655Z,52.61
2023-05-09T08:16:02.801Z,52.20
2023-05-09T08:18:29.542Z,52.21
2023-05-09T08:20:56.232Z,52.41
2023-05-09T08:23:22.806Z,52.10
2023-05-09T08:25:53.277Z,52.37
2023-05-09T08:28:20.743Z,52.39
2023-05-09T08:30:47.504Z,52.45
2023-05-09T08:33:14.099Z,52.30
2023-05-09T08:35:40.828Z,52.06
2023-05-09T08:38:07.415Z,52.41
2023-05-09T08:40:40.574Z,52.32
2023-05-09T08:43:07.922Z,52.03
2023-05-09T08:45:51.448Z,52.28
2023-05-09T08:48:19.073Z,52.14
2023-05-09T08:50:45.832Z,52.06
2023-05-09T08:53:12.696Z,51.99
2023-05-09T08:55:39.666Z,52.32
2023-05-09T08:58:07.164Z,51.97
2023-05-09T09:00:34.594Z,52.06
2023-05-09T09:03:03.444Z,51.98
2023-05-09T09:05:41.837Z,52.43
2023-05-09T09:08:11.110Z,51.97
2023-05-09T09:10:47.312Z,52.52
2023-05-09T09:13:15.707Z,52.15
2023-05-09T09:15:45.168Z,52.26
2023-05-09T09:18:16.281Z,52.26
2023-05-09T09:20:51.182Z,52.20
2023-05-09T09:23:20.624Z,52.19
2023-05-09T09:25:48.419Z,52.08
2023-05-09T09:28:15.508Z,52.43
2023-05-09T09:30:47.555Z,52.18
2023-05-09T09:33:21.507Z,52.27
2023-05-09T09:35:52.514Z,52.46
2023-05-09T09:38:20.710Z,52.45
2023-05-09T09:40:52.987Z,52.15
2023-05-09T09:43:19.656Z,52.30
2023-05-09T09:45:51.062Z,52.17
2023-05-09T09:48:17.735Z,52.11
2023-05-09T09:50:47.261Z,52.07
2023-05-09T09:53:13.785Z,52.04
2023-05-09T09:55:50.360Z,52.33
2023-05-09T09:58:18.587Z,52.13
2023-05-09T10:00:46.255Z,51.95
2023-05-09T10:03:16.911Z,52.27
2023-05-09T10:05:43.660Z,52.15
2023-05-09T10:08:10.753Z,52.17
2023-05-09T10:10:38.178Z,52.27
2023-05-09T10:13:08.037Z,51.95
2023-05-09T10:15:45.510Z,51.88
2023-05-09T10:18:25.263Z,52.23
2023-05-09T10:20:53.280Z,52.30
2023-05-09T10:23:20.928Z,52.17
2023-05-09T10:26:17.754Z,52.35
2023-05-09T10:28:49.234Z,52.04
2023-05-09T10:31:32.560Z,52.22
2023-05-09T10:34:05.465Z,52.10
2023-05-09T10:36:32.670Z,52.06
2023-05-09T10:39:00.466Z,52.13
2023-05-09T10:41:27.876Z,51.89
2023-05-09T10:43:57.259Z,52.12
2023-05-09T10:46:24.974Z,52.34
2023-05-09T10:48:52.490Z,52.06
2023-05-09T10:51:19.237Z,51.95
2023-05-09T10:53:48.563Z,52.36
2023-05-09T10:56:32.302Z,52.10
2023-05-09T10:59:00.150Z,52.04
2023-05-09T11:01:39.080Z,51.96
2023-05-09T11:04:14.557Z,52.08
2023-05-09T11:06:41.764Z,51.98
2023-05-09T11:09:32.721Z,52.06
2023-05-09T11:12:10.111Z,52.02
2023-05-09T11:14:48.684Z,52.29
2023-05-09T11:17:21.817Z,51.99
2023-05-09T11:19:49.104Z,52.34
2023-05-09T11:22:19.663Z,51.92
2023-05-09T11:24:47.614Z,52.19
2023-05-09T11:27:20.580Z,52.14
2023-05-09T11:29:55.923Z,51.94
2023-05-09T11:32:28.549Z,52.09
2023-05-09T11:35:22.551Z,52.22
2023-05-09T11:37:52.879Z,52.15
2023-05-09T11:40:21.750Z,52.17
2023-05-09T11:42:56.208Z,52.29
2023-05-09T11:45:27.448Z,52.18
2023-05-09T11:47:54.598Z,52.16
2023-05-09T11:50:21.683Z,52.07
2023-05-09T11:52:49.087Z,52.03
2023-05-09T11:55:22.695Z,51.96
2023-05-09T11:57:54.380Z,52.01
2023-05-09T12:00:23.501Z,52.31
2023-05-09T12:02:51.507Z,52.04
2023-05-09T12:05:20.059Z,52.32
2023-05-09T12:07:47.482Z,51.97
2023-05-09T12:10:20.125Z,52.21
2023-05-09T12:12:50.796Z,52.02
2023-05-09T12:15:18.607Z,52.36
2023-05-09T12:17:47.398Z,51.99
2023-05-09T12:20:15.844Z,52.16
2023-05-09T12:22:43.795Z,52.26
2023-05-09T12:25:11.915Z,52.06
2023-05-09T12:27:41.727Z,52.12
2023-05-09T12:30:10.934Z,52.21
2023-05-09T12:32:40.376Z,52.41
2023-05-09T12:35:09.602Z,52.18
2023-05-09T12:37:36.490Z,51.97
2023-05-09T12:40:08.674Z,52.30
2023-05-09T12:42:36.072Z,52.22
2023-05-09T12:45:04.230Z,51.91
2023-05-09T12:47:31.898Z,52.02
2023-05-09T12:49:59.750Z,51.96
2023-05-09T12:52:33.255Z,51.96
2023-05-09T12:55:07.046Z,52.10
2023-05-09T12:57:33.755Z,52.24
2023-05-09T13:00:01.720Z,52.09
2023-05-09T13:02:28.791Z,52.14
2023-05-09T13:05:12.811Z,52.48
2023-05-09T13:07:45.257Z,52.10
2023-05-09T13:10:15.429Z,52.21
2023-05-09T13:12:45.368Z,51.97
2023-05-09T13:15:12.312Z,51.98
2023-05-09T13:17:39.008Z,51.93
2023-05-09T13:20:06.287Z,52.20
2023-05-09T13:22:33.218Z,51.99
2023-05-09T13:24:59.980Z,52.18
2023-05-09T13:27:27.922Z,52.12
2023-05-09T13:29:54.464Z,52.22
2023-05-09T13:32:21.191Z,51.82
2023-05-09T13:34:47.775Z,51.95
2023-05-09T13:37:14.339Z,52.16
2023-05-09T13:39:40.957Z,52.05
2023-05-09T13:42:07.765Z,51.91
2023-05-09T13:44:34.350Z,52.27
2023-05-09T13:47:01.041Z,52.32
2023-05-09T13:49:30.648Z,52.26
2023-05-09T13:51:57.344Z,52.17
2023-05-09T13:54:23.855Z,52.03
2023-05-09T13:56:51.312Z,52.16
2023-05-09T13:59:17.876Z,52.08
2023-05-09T14:01:44.688Z,52.36
2023-05-09T14:04:11.332Z,51.99
2023-05-09T14:06:37.887Z,52.41
2023-05-09T14:09:04.455Z,52.26
2023-05-09T14:11:31.134Z,52.40
2023-05-09T14:13:57.677Z,52.22
2023-05-09T14:16:24.410Z,52.20
2023-05-09T14:18:50.995Z,52.19
2023-05-09T14:21:17.544Z,52.11
2023-05-09T14:23:44.080Z,52.24
2023-05-09T14:26:10.692Z,52.14
2023-05-09T14:28:38.205Z,52.18
2023-05-09T14:31:05.004Z,52.16
2023-05-09T14:33:32.813Z,52.14
2023-05-09T14:36:01.194Z,52.34
2023-05-09T14:38:27.755Z,52.20
2023-05-09T14:40:54.435Z,51.98
2023-05-09T14:43:22.277Z,52.10
2023-05-09T14:45:48.895Z,52.11
2023-05-09T14:48:16.272Z,52.37
2023-05-09T14:50:42.894Z,52.33
2023-05-09T14:53:11.082Z,51.97
2023-05-09T14:55:37.739Z,52.26
2023-05-09T14:58:04.329Z,52.39
2023-05-09T15:00:30.962Z,51.85
2023-05-09T15:02:57.761Z,51.99
2023-05-09T15:05:24.570Z,52.02
2023-05-09T15:07:51.100Z,52.39
2023-05-09T15:10:17.874Z,52.12
2023-05-09T15:12:44.875Z,52.21
2023-05-09T15:15:15.886Z,52.10
2023-05-09T15:17:44.123Z,52.25
2023-05-09T15:20:15.442Z,52.01
2023-05-09T15:22:42.412Z,52.25
2023-05-09T15:25:09.524Z,52.26
2023-05-09T15:27:36.442Z,52.50
2023-05-09T15:30:03.989Z,52.43
2023-05-09T15:32:30.615Z,52.16
2023-05-09T15:34:57.199Z,52.45
2023-05-09T15:37:23.928Z,52.60
2023-05-09T15:39:50.563Z,52.47
2023-05-09T15:42:19.070Z,52.40
2023-05-09T15:44:47.234Z,52.31
2023-05-09T15:47:13.876Z,52.09
2023-05-09T15:49:40.697Z,52.10
2023-05-09T15:52:08.357Z,52.09
2023-05-09T15:54:35.941Z,52.21
2023-05-09T15:57:03.739Z,51.98
2023-05-09T15:59:30.545Z,52.13
2023-05-09T16:01:57.177Z,52.11
2023-05-09T16:04:24.529Z,52.13
2023-05-09T16:06:51.822Z,52.36
2023-05-09T16:09:19.428Z,52.27
2023-05-09T16:11:46.011Z,52.34
2023-05-09T16:14:13.054Z,52.13
2023-05-09T16:16:40.628Z,52.64
2023-05-09T16:19:07.305Z,52.53
2023-05-09T16:21:34.269Z,52.55
2023-05-09T16:24:03.111Z,52.52
2023-05-09T16:26:29.811Z,52.46
2023-05-09T16:28:56.419Z,52.35
2023-05-09T16:31:27.419Z,52.52
2023-05-09T16:33:54.341Z,52.70
2023-05-09T16:36:22.027Z,52.64
2023-05-09T16:38:48.755Z,52.62
2023-05-09T16:41:15.960Z,52.66
2023-05-09T16:43:42.765Z,52.54
2023-05-09T16:46:09.609Z,52.90
2023-05-09T16:48:36.282Z,52.55
2023-05-09T16:51:03.305Z,52.88
2023-05-09T16:53:29.887Z,52.80
2023-05-09T16:55:56.883Z,52.67
2023-05-09T16:58:23.724Z,52.74
2023-05-09T17:00:50.885Z,53.06
2023-05-09T17:03:17.591Z,53.14
2023-05-09T17:05:44.266Z,52.89
2023-05-09T17:08:11.464Z,52.81
2023-05-09T17:10:39.487Z,52.99
2023-05-09T17:13:08.831Z,52.74
2023-05-09T17:15:35.772Z,52.78
2023-05-09T17:18:03.174Z,52.86
2023-05-09T17:20:30.099Z,53.06
2023-05-09T17:22:57.769Z,53.08
2023-05-09T17:25:24.358Z,52.81
2023-05-09T17:27:50.881Z,53.05
2023-05-09T17:30:18.366Z,52.95
2023-05-09T17:32:46.774Z,53.29
2023-05-09T17:35:13.846Z,53.29
2023-05-09T17:37:40.944Z,53.22
2023-05-09T17:40:08.072Z,53.26
2023-05-09T17:42:34.784Z,53.19
2023-05-09T17:45:01.294Z,53.07
2023-05-09T17:47:28.883Z,52.89
2023-05-09T17:49:55.592Z,53.03
2023-05-09T17:52:22.156Z,52.98
2023-05-09T17:54:48.861Z,53.27
2023-05-09T17:57:15.396Z,53.34
2023-05-09T17:59:42.036Z,53.09
2023-05-09T18:02:08.703Z,53.08
2023-05-09T18:04:35.460Z,53.29
2023-05-09T18:07:02.230Z,53.30
2023-05-09T18:09:28.802Z,53.21
2023-05-09T18:11:55.377Z,53.19
2023-05-09T18:14:21.925Z,53.28
2023-05-09T18:16:48.484Z,52.88
2023-05-09T18:19:15.024Z,53.31
2023-05-09T18:21:41.600Z,53.06
2023-05-09T18:24:09.317Z,53.47
2023-05-09T18:26:36.041Z,53.41
2023-05-09T18:29:02.685Z,53.19
2023-05-09T18:31:31.231Z,53.20
2023-05-09T18:33:57.884Z,53.30
2023-05-09T18:36:24.518Z,53.32
2023-05-09T18:38:51.078Z,53.12
2023-05-09T18:41:17.623Z,53.19
2023-05-09T18:43:46.942Z,53.10
2023-05-09T18:46:20.896Z,53.24
2023-05-09T18:48:50.386Z,53.38
2023-05-09T18:51:18.261Z,53.04
2023-05-09T18:53:45.042Z,53.27
2023-05-09T18:56:11.598Z,53.26
2023-05-09T18:58:38.250Z,53.09
2023-05-09T19:01:05.599Z,52.99
2023-05-09T19:03:32.273Z,53.04
2023-05-09T19:05:59.780Z,53.02
2023-05-09T19:08:26.998Z,53.03
2023-05-09T19:10:53.589Z,53.24
2023-05-09T19:13:20.516Z,52.89
2023-05-09T19:15:47.469Z,52.82
2023-05-09T19:18:14.283Z,53.02
2023-05-09T19:20:40.917Z,52.87
2023-05-09T19:23:07.452Z,52.76
2023-05-09T19:25:34.132Z,53.12
2023-05-09T19:28:00.786Z,52.72
2023-05-09T19:30:27.317Z,52.94
2023-05-09T19:32:53.921Z,52.81
2023-05-09T19:35:20.796Z,52.56
2023-05-09T19:37:47.454Z,52.50
2023-05-09T19:40:14.295Z,52.83
2023-05-09T19:42:41.948Z,52.74
2023-05-09T19:45:09.061Z,52.42
2023-05-09T19:47:35.728Z,52.64
2023-05-09T19:50:02.400Z,52.53
2023-05-09T19:52:29.684Z,52.75
2023-05-09T19:54:56.233Z,52.56
2023-05-09T19:57:22.857Z,52.43
2023-05-09T19:59:49.410Z,52.53
2023-05-09T20:02:15.949Z,52.48
2023-05-09T20:04:49.542Z,52.59
2023-05-09T20:07:17.643Z,52.41
2023-05-09T20:09:44.365Z,52.43
2023-05-09T20:12:11.118Z,52.48
2023-05-09T20:14:37.769Z,52.52
2023-05-09T20:17:05.391Z,52.73
2023-05-09T20:19:33.180Z,52.44
2023-05-09T20:22:01.216Z,52.48
2023-05-09T20:24:28.625Z,52.54
2023-05-09T20:26:55.261Z,52.55
2023-05-09T20:29:21.992Z,52.54
2023-05-09T20:31:48.620Z,52.37
2023-05-09T20:34:17.884Z,52.19
2023-05-09T20:36:48.411Z,52.27
2023-05-09T20:39:17.780Z,52.24
2023-05-09T20:41:48.100Z,52.43
2023-05-09T20:44:15.434Z,52.41
2023-05-09T20:46:42.287Z,52.39
2023-05-09T20:49:09.572Z,52.43
2023-05-09T20:51:36.142Z,52.59
2023-05-09T20:54:03.144Z,52.66
2023-05-09T20:56:29.963Z,52.30
2023-05-09T20:58:59.821Z,52.51
2023-05-09T21:01:27.137Z,52.23
2023-05-09T21:03:53.695Z,52.53
2023-05-09T21:06:20.245Z,52.45
2023-05-09T21:08:46.810Z,52.15
2023-05-09T21:11:13.818Z,52.46
2023-05-09T21:13:40.411Z,52.51
2023-05-09T21:16:07.140Z,52.26
2023-05-09T21:18:33.657Z,52.16
2023-05-09T21:21:02.714Z,52.29
2023-05-09T21:23:29.292Z,52.34
2023-05-09T21:25:55.820Z,52.29
2023-05-09T21:28:22.360Z,52.49
2023-05-09T21:30:52.982Z,52.38
2023-05-09T21:33:19.972Z,52.64
2023-05-09T21:35:47.147Z,52.38
2023-05-09T21:38:14.218Z,52.32
2023-05-09T21:40:41.283Z,52.43
2023-05-09T21:43:07.809Z,52.37
2023-05-09T21:45:34.377Z,52.42
2023-05-09T21:48:00.964Z,52.38
2023-05-09T21:50:27.634Z,52.58
2023-05-09T21:52:56.215Z,52.51
2023-05-09T21:55:23.033Z,52.30
2023-05-09T21:57:49.569Z,52.60
2023-05-09T22:00:17.082Z,52.44
2023-05-09T22:02:44.290Z,52.47
2023-05-09T22:05:11.750Z,52.51
2023-05-09T22:07:38.585Z,52.33
2023-05-09T22:10:05.689Z,52.40
2023-05-09T22:12:32.260Z,52.45
2023-05-09T22:14:59.114Z,52.44
2023-05-09T22:17:26.094Z,52.36
2023-05-09T22:19:52.697Z,52.68
2023-05-09T22:22:19.566Z,52.66
2023-05-09T22:24:46.236Z,52.73
2023-05-09T22:27:12.915Z,52.61
2023-05-09T22:29:39.434Z,52.63
2023-05-09T22:32:08.263Z,52.48
2023-05-09T22:34:35.352Z,52.44
2023-05-09T22:37:01.898Z,52.48
2023-05-09T22:39:28.509Z,52.52
2023-05-09T22:41:55.042Z,52.70
2023-05-09T22:44:21.937Z,52.45
2023-05-09T22:46:48.472Z,52.30
2023-05-09T22:49:15.068Z,52.53
2023-05-09T22:51:42.250Z,52.50
2023-05-09T22:54:09.062Z,52.62
2023-05-09T22:56:35.586Z,52.62
2023-05-09T22:59:02.190Z,52.40
2023-05-09T23:01:28.848Z,52.85
2023-05-09T23:03:55.392Z,52.96
2023-05-09T23:06:21.941Z,52.52
2023-05-09T23:08:48.522Z,52.40
2023-05-09T23:11:15.047Z,52.47
2023-05-09T23:13:42.297Z,52.58
2023-05-09T23:16:08.918Z,52.56
2023-05-09T23:18:35.815Z,52.43
2023-05-09T23:21:02.363Z,52.62
2023-05-09T23:23:29.027Z,52.66
2023-05-09T23:25:55.560Z,52.46
2023-05-09T23:28:25.097Z,52.43
2023-05-09T23:30:53.311Z,52.42
2023-05-09T23:33:20.418Z,52.39
2023-05-09T23:35:47.927Z,52.45
2023-05-09T23:38:14.500Z,52.57
2023-05-09T23:40:45.406Z,52.50
2023-05-09T23:43:13.278Z,52.75
2023-05-09T23:45:42.615Z,52.61
2023-05-09T23:48:09.250Z,52.81
2023-05-09T23:50:35.831Z,52.48
2023-05-09T23:53:04.850Z,52.68
2023-05-09T23:55:31.566Z,52.51
2023-05-09T23:57:58.244Z,52.67
